sensor_id;sensor_type;location;lat;lon;timestamp;temperature;humidity
49765;DHT22;35657;51.204;-4.130;2023-05-07T00:01:46;12.90;99.90
49765;DHT22;35657;51.204;-4.130;2023-05-07T00:04:13;12.80;99.90
49765;DHT22;35657;51.204;-4.130;2023-05-07T00:06:39;12.80;99.90
49765;DHT22;35657;51.204;-4.130;2023-05-07T00:09:06;12.80;99.90
49765;DHT22;35657;51.204;-4.130;2023-05-07T00:11:32;12.70;99.90
49765;DHT22;35657;51.204;-4.130;2023-05-07T00:13:58;12.80;99.90
49765;DHT22;35657;51.204;-4.130;2023-05-07T00:16:24;12.70;99.90
49765;DHT22;35657;51.204;-4.130;2023-05-07T00:18:50;12.70;99.90
49765;DHT22;35657;51.204;-4.130;2023-05-07T00:21:15;12.80;99.90
49765;DHT22;35657;51.204;-4.130;2023-05-07T00:23:41;12.70;99.90
49765;DHT22;35657;51.204;-4.130;2023-05-07T00:26:07;12.70;99.90
49765;DHT22;35657;51.204;-4.130;2023-05-07T00:28:32;12.70;99.90
49765;DHT22;35657;51.204;-4.130;2023-05-07T00:30:58;12.70;99.90
49765;DHT22;35657;51.204;-4.130;2023-05-07T00:33:24;12.70;99.90
49765;DHT22;35657;51.204;-4.130;2023-05-07T00:35:52;12.80;99.90
49765;DHT22;35657;51.204;-4.130;2023-05-07T00:38:18;12.80;99.90
49765;DHT22;35657;51.204;-4.130;2023-05-07T00:40:43;12.70;99.90
49765;DHT22;35657;51.204;-4.130;2023-05-07T00:43:09;12.80;99.90
49765;DHT22;35657;51.204;-4.130;2023-05-07T00:45:34;12.90;99.90
49765;DHT22;35657;51.204;-4.130;2023-05-07T00:48:01;13.00;99.90
49765;DHT22;35657;51.204;-4.130;2023-05-07T00:50:28;13.00;99.90
49765;DHT22;35657;51.204;-4.130;2023-05-07T00:52:55;13.10;99.90
49765;DHT22;35657;51.204;-4.130;2023-05-07T00:55:22;13.10;99.90
49765;DHT22;35657;51.204;-4.130;2023-05-07T00:57:48;13.20;99.90
49765;DHT22;35657;51.204;-4.130;2023-05-07T01:00:14;13.20;99.90
49765;DHT22;35657;51.204;-4.130;2023-05-07T01:02:40;13.20;99.90
49765;DHT22;35657;51.204;-4.130;2023-05-07T01:05:10;13.30;99.90
49765;DHT22;35657;51.204;-4.130;2023-05-07T01:07:37;13.20;99.90
49765;DHT22;35657;51.204;-4.130;2023-05-07T01:10:05;13.20;99.90
49765;DHT22;35657;51.204;-4.130;2023-05-07T01:12:31;13.20;99.90
49765;DHT22;35657;51.204;-4.130;2023-05-07T01:14:58;13.10;99.90
49765;DHT22;35657;51.204;-4.130;2023-05-07T01:17:24;13.00;99.90
49765;DHT22;35657;51.204;-4.130;2023-05-07T01:19:50;12.90;99.90
49765;DHT22;35657;51.204;-4.130;2023-05-07T01:22:29;12.90;99.90
49765;DHT22;35657;51.204;-4.130;2023-05-07T01:24:57;12.80;99.90
49765;DHT22;35657;51.204;-4.130;2023-05-07T01:27:25;12.70;99.90
49765;DHT22;35657;51.204;-4.130;2023-05-07T01:29:51;12.70;99.90
49765;DHT22;35657;51.204;-4.130;2023-05-07T01:32:19;12.70;99.90
49765;DHT22;35657;51.204;-4.130;2023-05-07T01:34:48;12.70;99.90
49765;DHT22;35657;51.204;-4.130;2023-05-07T01:37:15;12.70;99.90
49765;DHT22;35657;51.204;-4.130;2023-05-07T01:39:42;12.60;99.90
49765;DHT22;35657;51.204;-4.130;2023-05-07T01:42:08;12.70;99.90
49765;DHT22;35657;51.204;-4.130;2023-05-07T01:44:34;12.70;99.90
49765;DHT22;35657;51.204;-4.130;2023-05-07T01:47:01;12.60;99.90
49765;DHT22;35657;51.204;-4.130;2023-05-07T01:49:27;12.60;99.90
49765;DHT22;35657;51.204;-4.130;2023-05-07T01:51:53;12.60;99.90
49765;DHT22;35657;51.204;-4.130;2023-05-07T01:54:19;12.60;99.90
49765;DHT22;35657;51.204;-4.130;2023-05-07T01:56:46;12.70;99.90
49765;DHT22;35657;51.204;-4.130;2023-05-07T01:59:14;12.70;99.90
49765;DHT22;35657;51.204;-4.130;2023-05-07T02:01:39;12.70;99.90
49765;DHT22;35657;51.204;-4.130;2023-05-07T02:04:05;12.70;99.90
49765;DHT22;35657;51.204;-4.130;2023-05-07T02:06:31;12.70;99.90
49765;DHT22;35657;51.204;-4.130;2023-05-07T02:08:57;12.80;99.90
49765;DHT22;35657;51.204;-4.130;2023-05-07T02:11:22;12.80;99.90
49765;DHT22;35657;51.204;-4.130;2023-05-07T02:13:48;12.80;99.90
49765;DHT22;35657;51.204;-4.130;2023-05-07T02:16:14;12.80;99.90
49765;DHT22;35657;51.204;-4.130;2023-05-07T02:18:40;12.80;99.90
49765;DHT22;35657;51.204;-4.130;2023-05-07T02:21:05;12.90;99.90
49765;DHT22;35657;51.204;-4.130;2023-05-07T02:23:31;12.90;99.90
49765;DHT22;35657;51.204;-4.130;2023-05-07T02:25:56;13.00;99.90
49765;DHT22;35657;51.204;-4.130;2023-05-07T02:28:22;13.10;99.90
49765;DHT22;35657;51.204;-4.130;2023-05-07T02:30:48;13.10;99.90
49765;DHT22;35657;51.204;-4.130;2023-05-07T02:33:14;13.20;99.90
49765;DHT22;35657;51.204;-4.130;2023-05-07T02:35:40;13.30;99.90
49765;DHT22;35657;51.204;-4.130;2023-05-07T02:38:06;13.30;99.90
49765;DHT22;35657;51.204;-4.130;2023-05-07T02:40:31;13.30;99.90
49765;DHT22;35657;51.204;-4.130;2023-05-07T02:42:59;13.40;99.90
49765;DHT22;35657;51.204;-4.130;2023-05-07T02:45:25;13.30;99.90
49765;DHT22;35657;51.204;-4.130;2023-05-07T02:47:50;13.30;99.90
49765;DHT22;35657;51.204;-4.130;2023-05-07T02:50:16;13.30;99.90
49765;DHT22;35657;51.204;-4.130;2023-05-07T02:52:42;13.40;99.90
49765;DHT22;35657;51.204;-4.130;2023-05-07T02:55:08;13.40;99.90
49765;DHT22;35657;51.204;-4.130;2023-05-07T02:57:33;13.30;99.90
49765;DHT22;35657;51.204;-4.130;2023-05-07T02:59:59;13.30;99.90
49765;DHT22;35657;51.204;-4.130;2023-05-07T03:02:35;13.20;99.90
49765;DHT22;35657;51.204;-4.130;2023-05-07T03:05:01;13.20;99.90
49765;DHT22;35657;51.204;-4.130;2023-05-07T03:07:27;13.20;99.90
49765;DHT22;35657;51.204;-4.130;2023-05-07T03:09:52;13.20;99.90
49765;DHT22;35657;51.204;-4.130;2023-05-07T03:12:19;13.20;99.90
49765;DHT22;35657;51.204;-4.130;2023-05-07T03:14:44;13.10;99.90
49765;DHT22;35657;51.204;-4.130;2023-05-07T03:17:10;13.10;99.90
49765;DHT22;35657;51.204;-4.130;2023-05-07T03:19:36;13.10;99.90
49765;DHT22;35657;51.204;-4.130;2023-05-07T03:22:01;13.10;99.90
49765;DHT22;35657;51.204;-4.130;2023-05-07T03:24:27;13.10;99.90
49765;DHT22;35657;51.204;-4.130;2023-05-07T03:26:53;13.10;99.90
49765;DHT22;35657;51.204;-4.130;2023-05-07T03:29:18;13.10;99.90
49765;DHT22;35657;51.204;-4.130;2023-05-07T03:31:45;13.10;99.90
49765;DHT22;35657;51.204;-4.130;2023-05-07T03:34:10;13.10;99.90
49765;DHT22;35657;51.204;-4.130;2023-05-07T03:36:36;13.10;99.90
49765;DHT22;35657;51.204;-4.130;2023-05-07T03:39:02;13.10;99.90
49765;DHT22;35657;51.204;-4.130;2023-05-07T03:41:28;13.10;99.90
49765;DHT22;35657;51.204;-4.130;2023-05-07T03:43:54;13.20;99.90
49765;DHT22;35657;51.204;-4.130;2023-05-07T03:46:20;13.20;99.90
49765;DHT22;35657;51.204;-4.130;2023-05-07T03:48:46;13.20;99.90
49765;DHT22;35657;51.204;-4.130;2023-05-07T03:51:11;13.20;99.90
49765;DHT22;35657;51.204;-4.130;2023-05-07T03:53:37;13.20;99.90
49765;DHT22;35657;51.204;-4.130;2023-05-07T03:56:03;13.20;99.90
49765;DHT22;35657;51.204;-4.130;2023-05-07T03:58:29;13.20;99.90
49765;DHT22;35657;51.204;-4.130;2023-05-07T04:00:55;13.20;99.90
49765;DHT22;35657;51.204;-4.130;2023-05-07T04:03:20;13.20;99.90
49765;DHT22;35657;51.204;-4.130;2023-05-07T04:05:46;13.30;99.90
49765;DHT22;35657;51.204;-4.130;2023-05-07T04:08:12;13.30;99.90
49765;DHT22;35657;51.204;-4.130;2023-05-07T04:10:38;13.40;99.90
49765;DHT22;35657;51.204;-4.130;2023-05-07T04:13:03;13.50;99.90
49765;DHT22;35657;51.204;-4.130;2023-05-07T04:15:29;13.50;99.90
49765;DHT22;35657;51.204;-4.130;2023-05-07T04:17:55;13.60;99.90
49765;DHT22;35657;51.204;-4.130;2023-05-07T04:20:20;13.60;99.90
49765;DHT22;35657;51.204;-4.130;2023-05-07T04:22:46;13.60;99.90
49765;DHT22;35657;51.204;-4.130;2023-05-07T04:25:12;13.70;99.90
49765;DHT22;35657;51.204;-4.130;2023-05-07T04:27:37;13.70;99.90
49765;DHT22;35657;51.204;-4.130;2023-05-07T04:30:03;13.70;99.90
49765;DHT22;35657;51.204;-4.130;2023-05-07T04:32:29;13.70;99.90
49765;DHT22;35657;51.204;-4.130;2023-05-07T04:34:56;13.70;99.90
49765;DHT22;35657;51.204;-4.130;2023-05-07T04:37:22;13.50;99.90
49765;DHT22;35657;51.204;-4.130;2023-05-07T04:39:48;13.50;99.90
49765;DHT22;35657;51.204;-4.130;2023-05-07T04:42:17;13.40;99.90
49765;DHT22;35657;51.204;-4.130;2023-05-07T04:44:44;13.40;99.90
49765;DHT22;35657;51.204;-4.130;2023-05-07T04:47:11;13.40;99.90
49765;DHT22;35657;51.204;-4.130;2023-05-07T04:49:37;13.40;99.90
49765;DHT22;35657;51.204;-4.130;2023-05-07T04:52:03;13.40;99.90
49765;DHT22;35657;51.204;-4.130;2023-05-07T04:54:29;13.30;99.90
49765;DHT22;35657;51.204;-4.130;2023-05-07T04:56:55;13.30;99.90
49765;DHT22;35657;51.204;-4.130;2023-05-07T04:59:21;13.30;99.90
49765;DHT22;35657;51.204;-4.130;2023-05-07T05:01:47;13.30;99.90
49765;DHT22;35657;51.204;-4.130;2023-05-07T05:04:13;13.30;99.90
49765;DHT22;35657;51.204;-4.130;2023-05-07T05:06:39;13.30;99.90
49765;DHT22;35657;51.204;-4.130;2023-05-07T05:09:05;13.30;99.90
49765;DHT22;35657;51.204;-4.130;2023-05-07T05:11:31;13.30;99.90
49765;DHT22;35657;51.204;-4.130;2023-05-07T05:13:58;13.30;99.90
49765;DHT22;35657;51.204;-4.130;2023-05-07T05:16:24;13.30;99.90
49765;DHT22;35657;51.204;-4.130;2023-05-07T05:18:50;13.30;99.90
49765;DHT22;35657;51.204;-4.130;2023-05-07T05:21:17;13.30;99.90
49765;DHT22;35657;51.204;-4.130;2023-05-07T05:23:43;13.30;99.90
49765;DHT22;35657;51.204;-4.130;2023-05-07T05:26:08;13.30;99.90
49765;DHT22;35657;51.204;-4.130;2023-05-07T05:28:34;13.30;99.90
49765;DHT22;35657;51.204;-4.130;2023-05-07T05:31:00;13.40;99.90
49765;DHT22;35657;51.204;-4.130;2023-05-07T05:33:26;13.40;99.90
49765;DHT22;35657;51.204;-4.130;2023-05-07T05:35:53;13.40;99.90
49765;DHT22;35657;51.204;-4.130;2023-05-07T05:38:18;13.40;99.90
49765;DHT22;35657;51.204;-4.130;2023-05-07T05:40:44;13.40;99.90
49765;DHT22;35657;51.204;-4.130;2023-05-07T05:43:09;13.40;99.90
49765;DHT22;35657;51.204;-4.130;2023-05-07T05:45:35;13.40;99.90
49765;DHT22;35657;51.204;-4.130;2023-05-07T05:48:01;13.50;99.90
49765;DHT22;35657;51.204;-4.130;2023-05-07T05:50:26;13.60;99.90
49765;DHT22;35657;51.204;-4.130;2023-05-07T05:52:52;13.70;99.90
49765;DHT22;35657;51.204;-4.130;2023-05-07T05:55:18;13.70;99.90
49765;DHT22;35657;51.204;-4.130;2023-05-07T05:57:44;13.80;99.90
49765;DHT22;35657;51.204;-4.130;2023-05-07T06:00:10;13.80;99.90
49765;DHT22;35657;51.204;-4.130;2023-05-07T06:02:36;13.80;99.90
49765;DHT22;35657;51.204;-4.130;2023-05-07T06:05:01;13.90;99.90
49765;DHT22;35657;51.204;-4.130;2023-05-07T06:07:27;13.80;99.90
49765;DHT22;35657;51.204;-4.130;2023-05-07T06:09:52;13.80;99.90
49765;DHT22;35657;51.204;-4.130;2023-05-07T06:12:18;13.90;99.90
49765;DHT22;35657;51.204;-4.130;2023-05-07T06:14:44;13.90;99.90
49765;DHT22;35657;51.204;-4.130;2023-05-07T06:17:09;13.90;99.90
49765;DHT22;35657;51.204;-4.130;2023-05-07T06:19:35;13.80;99.90
49765;DHT22;35657;51.204;-4.130;2023-05-07T06:22:01;13.80;99.90
49765;DHT22;35657;51.204;-4.130;2023-05-07T06:24:27;13.70;99.90
49765;DHT22;35657;51.204;-4.130;2023-05-07T06:26:53;13.70;99.90
49765;DHT22;35657;51.204;-4.130;2023-05-07T06:29:19;13.70;99.90
49765;DHT22;35657;51.204;-4.130;2023-05-07T06:31:45;13.60;99.90
49765;DHT22;35657;51.204;-4.130;2023-05-07T06:34:10;13.60;99.90
49765;DHT22;35657;51.204;-4.130;2023-05-07T06:36:40;13.60;99.90
49765;DHT22;35657;51.204;-4.130;2023-05-07T06:39:06;13.60;99.90
49765;DHT22;35657;51.204;-4.130;2023-05-07T06:41:31;13.60;99.90
49765;DHT22;35657;51.204;-4.130;2023-05-07T06:43:57;13.60;99.90
49765;DHT22;35657;51.204;-4.130;2023-05-07T06:46:23;13.60;99.90
49765;DHT22;35657;51.204;-4.130;2023-05-07T06:48:49;13.60;99.90
49765;DHT22;35657;51.204;-4.130;2023-05-07T06:51:14;13.60;99.90
49765;DHT22;35657;51.204;-4.130;2023-05-07T06:53:40;13.70;99.90
49765;DHT22;35657;51.204;-4.130;2023-05-07T06:56:06;13.70;99.90
49765;DHT22;35657;51.204;-4.130;2023-05-07T06:58:32;13.70;99.90
49765;DHT22;35657;51.204;-4.130;2023-05-07T07:00:58;13.70;99.90
49765;DHT22;35657;51.204;-4.130;2023-05-07T07:03:23;13.70;99.90
49765;DHT22;35657;51.204;-4.130;2023-05-07T07:05:53;13.70;99.90
49765;DHT22;35657;51.204;-4.130;2023-05-07T07:08:19;13.80;99.90
49765;DHT22;35657;51.204;-4.130;2023-05-07T07:10:46;13.80;99.90
49765;DHT22;35657;51.204;-4.130;2023-05-07T07:13:12;13.80;99.90
49765;DHT22;35657;51.204;-4.130;2023-05-07T07:15:39;13.80;99.90
49765;DHT22;35657;51.204;-4.130;2023-05-07T07:18:05;13.80;99.90
49765;DHT22;35657;51.204;-4.130;2023-05-07T07:20:31;13.80;99.90
49765;DHT22;35657;51.204;-4.130;2023-05-07T07:22:57;13.90;99.90
49765;DHT22;35657;51.204;-4.130;2023-05-07T07:25:23;13.90;99.90
49765;DHT22;35657;51.204;-4.130;2023-05-07T07:27:49;14.00;99.90
49765;DHT22;35657;51.204;-4.130;2023-05-07T07:30:15;14.10;99.90
49765;DHT22;35657;51.204;-4.130;2023-05-07T07:32:41;14.20;99.90
49765;DHT22;35657;51.204;-4.130;2023-05-07T07:35:07;14.30;99.90
49765;DHT22;35657;51.204;-4.130;2023-05-07T07:37:33;14.30;99.90
49765;DHT22;35657;51.204;-4.130;2023-05-07T07:39:59;14.40;99.90
49765;DHT22;35657;51.204;-4.130;2023-05-07T07:42:25;14.40;99.90
49765;DHT22;35657;51.204;-4.130;2023-05-07T07:44:50;14.50;99.90
49765;DHT22;35657;51.204;-4.130;2023-05-07T07:47:16;14.50;99.90
49765;DHT22;35657;51.204;-4.130;2023-05-07T07:49:42;14.50;99.90
49765;DHT22;35657;51.204;-4.130;2023-05-07T07:52:08;14.60;99.90
49765;DHT22;35657;51.204;-4.130;2023-05-07T07:54:33;14.60;99.90
49765;DHT22;35657;51.204;-4.130;2023-05-07T07:56:59;14.70;99.90
49765;DHT22;35657;51.204;-4.130;2023-05-07T07:59:25;14.70;99.90
49765;DHT22;35657;51.204;-4.130;2023-05-07T08:01:50;14.60;99.90
49765;DHT22;35657;51.204;-4.130;2023-05-07T08:04:17;14.60;99.90
49765;DHT22;35657;51.204;-4.130;2023-05-07T08:06:45;14.50;99.90
49765;DHT22;35657;51.204;-4.130;2023-05-07T08:09:12;14.60;99.90
49765;DHT22;35657;51.204;-4.130;2023-05-07T08:11:38;14.50;99.90
49765;DHT22;35657;51.204;-4.130;2023-05-07T08:14:04;14.50;99.90
49765;DHT22;35657;51.204;-4.130;2023-05-07T08:16:30;14.60;99.90
49765;DHT22;35657;51.204;-4.130;2023-05-07T08:18:56;14.60;99.90
49765;DHT22;35657;51.204;-4.130;2023-05-07T08:21:22;14.50;99.90
49765;DHT22;35657;51.204;-4.130;2023-05-07T08:23:48;14.60;99.90
49765;DHT22;35657;51.204;-4.130;2023-05-07T08:26:14;14.50;99.90
49765;DHT22;35657;51.204;-4.130;2023-05-07T08:28:40;14.50;99.90
49765;DHT22;35657;51.204;-4.130;2023-05-07T08:31:05;14.40;99.90
49765;DHT22;35657;51.204;-4.130;2023-05-07T08:33:31;14.50;99.90
49765;DHT22;35657;51.204;-4.130;2023-05-07T08:35:57;14.40;99.90
49765;DHT22;35657;51.204;-4.130;2023-05-07T08:38:22;14.40;99.90
49765;DHT22;35657;51.204;-4.130;2023-05-07T08:40:48;14.50;99.90
49765;DHT22;35657;51.204;-4.130;2023-05-07T08:43:14;14.50;99.90
49765;DHT22;35657;51.204;-4.130;2023-05-07T08:45:45;14.60;99.90
49765;DHT22;35657;51.204;-4.130;2023-05-07T08:48:17;14.60;99.90
49765;DHT22;35657;51.204;-4.130;2023-05-07T08:50:43;14.60;99.90
49765;DHT22;35657;51.204;-4.130;2023-05-07T08:53:09;14.70;99.90
49765;DHT22;35657;51.204;-4.130;2023-05-07T08:55:34;14.80;99.90
49765;DHT22;35657;51.204;-4.130;2023-05-07T08:58:00;14.80;99.90
49765;DHT22;35657;51.204;-4.130;2023-05-07T09:00:26;14.80;99.90
49765;DHT22;35657;51.204;-4.130;2023-05-07T09:02:56;14.90;99.90
49765;DHT22;35657;51.204;-4.130;2023-05-07T09:05:21;14.90;99.90
49765;DHT22;35657;51.204;-4.130;2023-05-07T09:07:47;14.90;99.90
49765;DHT22;35657;51.204;-4.130;2023-05-07T09:10:13;15.10;99.90
49765;DHT22;35657;51.204;-4.130;2023-05-07T09:12:39;15.10;99.90
49765;DHT22;35657;51.204;-4.130;2023-05-07T09:15:06;15.20;99.90
49765;DHT22;35657;51.204;-4.130;2023-05-07T09:17:32;15.10;99.90
49765;DHT22;35657;51.204;-4.130;2023-05-07T09:20:07;15.10;99.90
49765;DHT22;35657;51.204;-4.130;2023-05-07T09:22:33;15.20;99.90
49765;DHT22;35657;51.204;-4.130;2023-05-07T09:24:59;15.30;99.90
49765;DHT22;35657;51.204;-4.130;2023-05-07T09:27:25;15.40;99.90
49765;DHT22;35657;51.204;-4.130;2023-05-07T09:29:51;15.50;99.90
49765;DHT22;35657;51.204;-4.130;2023-05-07T09:32:17;15.70;99.90
49765;DHT22;35657;51.204;-4.130;2023-05-07T09:34:43;15.80;99.90
49765;DHT22;35657;51.204;-4.130;2023-05-07T09:37:08;15.80;99.90
49765;DHT22;35657;51.204;-4.130;2023-05-07T09:39:48;15.80;99.90
49765;DHT22;35657;51.204;-4.130;2023-05-07T09:42:14;15.70;99.90
49765;DHT22;35657;51.204;-4.130;2023-05-07T09:44:45;15.60;99.90
49765;DHT22;35657;51.204;-4.130;2023-05-07T09:47:18;15.50;99.90
49765;DHT22;35657;51.204;-4.130;2023-05-07T09:49:47;15.70;99.90
49765;DHT22;35657;51.204;-4.130;2023-05-07T09:52:13;16.00;99.90
49765;DHT22;35657;51.204;-4.130;2023-05-07T09:54:40;16.00;99.90
49765;DHT22;35657;51.204;-4.130;2023-05-07T09:57:10;16.10;99.90
49765;DHT22;35657;51.204;-4.130;2023-05-07T09:59:37;16.30;99.90
49765;DHT22;35657;51.204;-4.130;2023-05-07T10:02:04;16.50;99.90
49765;DHT22;35657;51.204;-4.130;2023-05-07T10:04:31;16.60;99.90
49765;DHT22;35657;51.204;-4.130;2023-05-07T10:06:58;16.80;99.90
49765;DHT22;35657;51.204;-4.130;2023-05-07T10:09:26;16.90;99.90
49765;DHT22;35657;51.204;-4.130;2023-05-07T10:11:51;16.90;99.90
49765;DHT22;35657;51.204;-4.130;2023-05-07T10:14:17;17.20;99.90
49765;DHT22;35657;51.204;-4.130;2023-05-07T10:16:44;17.00;99.90
49765;DHT22;35657;51.204;-4.130;2023-05-07T10:19:11;17.00;99.90
49765;DHT22;35657;51.204;-4.130;2023-05-07T10:21:39;16.90;99.90
49765;DHT22;35657;51.204;-4.130;2023-05-07T10:24:19;16.90;99.90
49765;DHT22;35657;51.204;-4.130;2023-05-07T10:26:48;17.10;99.90
49765;DHT22;35657;51.204;-4.130;2023-05-07T10:32:19;16.90;99.90
49765;DHT22;35657;51.204;-4.130;2023-05-07T10:34:54;16.80;99.90
49765;DHT22;35657;51.204;-4.130;2023-05-07T10:37:21;16.70;99.90
49765;DHT22;35657;51.204;-4.130;2023-05-07T10:39:47;16.80;99.90
49765;DHT22;35657;51.204;-4.130;2023-05-07T10:42:14;16.70;99.90
49765;DHT22;35657;51.204;-4.130;2023-05-07T10:44:40;16.90;99.90
49765;DHT22;35657;51.204;-4.130;2023-05-07T10:47:13;16.90;99.90
49765;DHT22;35657;51.204;-4.130;2023-05-07T10:52:14;17.20;99.90
49765;DHT22;35657;51.204;-4.130;2023-05-07T10:54:44;17.20;99.90
49765;DHT22;35657;51.204;-4.130;2023-05-07T10:59:57;17.30;99.90
49765;DHT22;35657;51.204;-4.130;2023-05-07T11:02:23;17.00;99.90
49765;DHT22;35657;51.204;-4.130;2023-05-07T11:05:25;17.10;99.90
49765;DHT22;35657;51.204;-4.130;2023-05-07T11:07:58;17.30;99.90
49765;DHT22;35657;51.204;-4.130;2023-05-07T11:10:47;17.20;99.90
49765;DHT22;35657;51.204;-4.130;2023-05-07T11:13:14;17.20;99.90
49765;DHT22;35657;51.204;-4.130;2023-05-07T11:15:43;17.50;99.90
49765;DHT22;35657;51.204;-4.130;2023-05-07T11:18:10;17.60;99.90
49765;DHT22;35657;51.204;-4.130;2023-05-07T11:20:46;17.70;99.90
49765;DHT22;35657;51.204;-4.130;2023-05-07T11:26:00;17.50;99.90
49765;DHT22;35657;51.204;-4.130;2023-05-07T11:28:27;17.40;99.90
49765;DHT22;35657;51.204;-4.130;2023-05-07T11:30:53;17.50;99.90
49765;DHT22;35657;51.204;-4.130;2023-05-07T11:33:20;17.20;99.90
49765;DHT22;35657;51.204;-4.130;2023-05-07T11:35:46;17.20;99.90
49765;DHT22;35657;51.204;-4.130;2023-05-07T11:38:13;17.30;99.90
49765;DHT22;35657;51.204;-4.130;2023-05-07T11:40:52;17.40;99.90
49765;DHT22;35657;51.204;-4.130;2023-05-07T11:43:18;17.30;99.90
49765;DHT22;35657;51.204;-4.130;2023-05-07T11:45:48;17.40;99.90
49765;DHT22;35657;51.204;-4.130;2023-05-07T11:48:15;17.80;99.90
49765;DHT22;35657;51.204;-4.130;2023-05-07T11:51:00;17.90;99.90
49765;DHT22;35657;51.204;-4.130;2023-05-07T11:53:27;17.60;99.90
49765;DHT22;35657;51.204;-4.130;2023-05-07T11:55:55;17.70;99.90
49765;DHT22;35657;51.204;-4.130;2023-05-07T11:58:23;17.90;99.90
49765;DHT22;35657;51.204;-4.130;2023-05-07T12:00:55;17.60;99.90
49765;DHT22;35657;51.204;-4.130;2023-05-07T12:03:21;17.70;99.90
49765;DHT22;35657;51.204;-4.130;2023-05-07T12:05:47;17.40;99.90
49765;DHT22;35657;51.204;-4.130;2023-05-07T12:08:20;17.50;99.90
49765;DHT22;35657;51.204;-4.130;2023-05-07T12:10:49;17.20;99.90
49765;DHT22;35657;51.204;-4.130;2023-05-07T12:13:18;17.10;99.90
49765;DHT22;35657;51.204;-4.130;2023-05-07T12:15:45;17.50;99.90
49765;DHT22;35657;51.204;-4.130;2023-05-07T12:18:14;17.50;99.90
49765;DHT22;35657;51.204;-4.130;2023-05-07T12:20:40;17.60;99.90
49765;DHT22;35657;51.204;-4.130;2023-05-07T12:23:06;17.80;99.90
49765;DHT22;35657;51.204;-4.130;2023-05-07T12:25:35;17.60;99.90
49765;DHT22;35657;51.204;-4.130;2023-05-07T12:28:05;17.50;99.90
49765;DHT22;35657;51.204;-4.130;2023-05-07T12:30:40;17.40;99.90
49765;DHT22;35657;51.204;-4.130;2023-05-07T12:33:06;17.00;99.90
49765;DHT22;35657;51.204;-4.130;2023-05-07T12:35:36;16.70;99.90
49765;DHT22;35657;51.204;-4.130;2023-05-07T12:38:02;16.90;99.90
49765;DHT22;35657;51.204;-4.130;2023-05-07T12:40:44;16.90;99.90
49765;DHT22;35657;51.204;-4.130;2023-05-07T12:43:21;17.20;99.90
49765;DHT22;35657;51.204;-4.130;2023-05-07T12:45:49;17.30;99.90
49765;DHT22;35657;51.204;-4.130;2023-05-07T12:48:14;17.50;99.90
49765;DHT22;35657;51.204;-4.130;2023-05-07T12:50:40;17.50;99.90
49765;DHT22;35657;51.204;-4.130;2023-05-07T12:53:07;17.40;99.90
49765;DHT22;35657;51.204;-4.130;2023-05-07T12:55:45;17.50;99.90
49765;DHT22;35657;51.204;-4.130;2023-05-07T12:58:28;17.50;99.90
49765;DHT22;35657;51.204;-4.130;2023-05-07T13:00:55;17.50;99.90
49765;DHT22;35657;51.204;-4.130;2023-05-07T13:03:36;17.20;99.90
49765;DHT22;35657;51.204;-4.130;2023-05-07T13:06:08;17.40;99.90
49765;DHT22;35657;51.204;-4.130;2023-05-07T13:08:41;17.50;99.90
49765;DHT22;35657;51.204;-4.130;2023-05-07T13:11:10;17.30;99.90
49765;DHT22;35657;51.204;-4.130;2023-05-07T13:13:36;17.50;99.90
49765;DHT22;35657;51.204;-4.130;2023-05-07T13:16:03;17.40;99.90
49765;DHT22;35657;51.204;-4.130;2023-05-07T13:18:30;17.70;99.90
49765;DHT22;35657;51.204;-4.130;2023-05-07T13:20:56;17.60;99.90
49765;DHT22;35657;51.204;-4.130;2023-05-07T13:23:22;17.60;99.90
49765;DHT22;35657;51.204;-4.130;2023-05-07T13:25:48;17.50;99.90
49765;DHT22;35657;51.204;-4.130;2023-05-07T13:28:14;17.40;99.90
49765;DHT22;35657;51.204;-4.130;2023-05-07T13:30:40;17.40;99.90
49765;DHT22;35657;51.204;-4.130;2023-05-07T13:33:06;17.50;99.90
49765;DHT22;35657;51.204;-4.130;2023-05-07T13:35:32;17.60;99.90
49765;DHT22;35657;51.204;-4.130;2023-05-07T13:37:58;17.10;99.90
49765;DHT22;35657;51.204;-4.130;2023-05-07T13:40:24;16.90;99.90
49765;DHT22;35657;51.204;-4.130;2023-05-07T13:42:50;17.20;99.90
49765;DHT22;35657;51.204;-4.130;2023-05-07T13:45:17;17.20;99.90
49765;DHT22;35657;51.204;-4.130;2023-05-07T13:47:43;17.50;99.90
49765;DHT22;35657;51.204;-4.130;2023-05-07T13:50:10;17.50;99.90
49765;DHT22;35657;51.204;-4.130;2023-05-07T13:52:37;17.60;99.90
49765;DHT22;35657;51.204;-4.130;2023-05-07T13:55:03;17.50;99.90
49765;DHT22;35657;51.204;-4.130;2023-05-07T13:57:29;17.70;99.90
49765;DHT22;35657;51.204;-4.130;2023-05-07T13:59:55;17.70;99.90
49765;DHT22;35657;51.204;-4.130;2023-05-07T14:02:20;17.70;99.90
49765;DHT22;35657;51.204;-4.130;2023-05-07T14:04:46;17.80;99.90
49765;DHT22;35657;51.204;-4.130;2023-05-07T14:07:12;17.70;99.90
49765;DHT22;35657;51.204;-4.130;2023-05-07T14:09:38;17.70;99.90
49765;DHT22;35657;51.204;-4.130;2023-05-07T14:12:03;17.80;99.90
49765;DHT22;35657;51.204;-4.130;2023-05-07T14:14:30;17.90;99.90
49765;DHT22;35657;51.204;-4.130;2023-05-07T14:16:57;17.80;99.90
49765;DHT22;35657;51.204;-4.130;2023-05-07T14:19:22;17.50;99.90
49765;DHT22;35657;51.204;-4.130;2023-05-07T14:21:48;16.90;99.90
49765;DHT22;35657;51.204;-4.130;2023-05-07T14:24:14;16.80;99.90
49765;DHT22;35657;51.204;-4.130;2023-05-07T14:26:40;16.70;99.90
49765;DHT22;35657;51.204;-4.130;2023-05-07T14:29:06;16.50;99.90
49765;DHT22;35657;51.204;-4.130;2023-05-07T14:31:31;16.40;99.90
49765;DHT22;35657;51.204;-4.130;2023-05-07T14:33:58;16.00;99.90
49765;DHT22;35657;51.204;-4.130;2023-05-07T14:36:24;16.10;99.90
49765;DHT22;35657;51.204;-4.130;2023-05-07T14:38:52;16.20;99.90
49765;DHT22;35657;51.204;-4.130;2023-05-07T14:41:19;16.10;99.90
49765;DHT22;35657;51.204;-4.130;2023-05-07T14:43:46;15.80;99.90
49765;DHT22;35657;51.204;-4.130;2023-05-07T14:46:16;15.80;99.90
49765;DHT22;35657;51.204;-4.130;2023-05-07T14:48:44;16.00;99.90
49765;DHT22;35657;51.204;-4.130;2023-05-07T14:51:10;16.00;99.90
49765;DHT22;35657;51.204;-4.130;2023-05-07T14:53:36;16.20;99.90
49765;DHT22;35657;51.204;-4.130;2023-05-07T14:56:02;16.00;99.90
49765;DHT22;35657;51.204;-4.130;2023-05-07T14:58:28;15.80;99.90
49765;DHT22;35657;51.204;-4.130;2023-05-07T15:00:54;16.10;99.90
49765;DHT22;35657;51.204;-4.130;2023-05-07T15:03:20;16.00;99.90
49765;DHT22;35657;51.204;-4.130;2023-05-07T15:05:47;15.90;99.90
49765;DHT22;35657;51.204;-4.130;2023-05-07T15:08:12;15.70;99.90
49765;DHT22;35657;51.204;-4.130;2023-05-07T15:10:38;15.70;99.90
49765;DHT22;35657;51.204;-4.130;2023-05-07T15:13:07;15.60;99.90
49765;DHT22;35657;51.204;-4.130;2023-05-07T15:15:33;15.40;99.90
49765;DHT22;35657;51.204;-4.130;2023-05-07T15:17:59;15.40;99.90
49765;DHT22;35657;51.204;-4.130;2023-05-07T15:20:28;15.60;99.90
49765;DHT22;35657;51.204;-4.130;2023-05-07T15:22:54;15.80;99.90
49765;DHT22;35657;51.204;-4.130;2023-05-07T15:25:21;15.80;99.90